createdAt,value
2022-10-17T00:00:40.673Z,67.50
2022-10-17T00:05:46.515Z,68.10
2022-10-17T00:11:00.837Z,67.94
2022-10-17T00:16:03.413Z,67.50
2022-10-17T00:21:06.529Z,67.43
2022-10-17T00:26:10.316Z,67.89
2022-10-17T00:31:13.118Z,67.88
2022-10-17T00:36:19.072Z,67.61
2022-10-17T00:41:24.877Z,67.04
2022-10-17T00:46:30.455Z,67.30
2022-10-17T00:51:45.386Z,67.01
2022-10-17T00:56:48.806Z,67.31
2022-10-17T01:02:01.385Z,67.48
2022-10-17T01:07:03.970Z,67.50
2022-10-17T01:12:20.144Z,67.67
2022-10-17T01:17:31.853Z,68.44
2022-10-17T01:22:57.357Z,68.14
2022-10-17T01:28:30.556Z,68.88
2022-10-17T01:33:38.272Z,68.56
2022-10-17T01:38:50.646Z,68.50
2022-10-17T01:44:03.747Z,68.20
2022-10-17T01:49:10.340Z,67.77
2022-10-17T01:54:24.721Z,68.21
2022-10-17T01:59:41.338Z,68.09
2022-10-17T02:04:45.029Z,68.49
2022-10-17T02:09:47.666Z,68.72
2022-10-17T02:15:08.475Z,69.26
2022-10-17T02:20:31.072Z,68.39
2022-10-17T02:25:46.507Z,68.87
2022-10-17T02:30:58.173Z,69.11
2022-10-17T02:36:06.306Z,68.92
2022-10-17T02:41:12.776Z,69.00
2022-10-17T02:46:21.275Z,69.10
2022-10-17T02:51:56.465Z,69.08
2022-10-17T02:57:18.733Z,68.64
2022-10-17T03:02:21.596Z,69.34
2022-10-17T03:07:24.225Z,69.36
2022-10-17T03:12:27.142Z,69.63
2022-10-17T03:17:29.984Z,69.22
2022-10-17T03:22:32.840Z,69.40
2022-10-17T03:27:38.025Z,69.91
2022-10-17T03:32:40.809Z,69.71
2022-10-17T03:37:44.183Z,70.01
2022-10-17T03:42:46.777Z,69.76
2022-10-17T03:47:49.590Z,69.57
2022-10-17T03:52:52.286Z,69.88
2022-10-17T03:57:55.157Z,69.65
2022-10-17T04:02:59.140Z,69.98
2022-10-17T04:08:04.738Z,69.37
2022-10-17T04:13:26.392Z,70.06
2022-10-17T04:18:29.269Z,70.38
2022-10-17T04:23:32.933Z,70.03
2022-10-17T04:28:44.279Z,69.43
2022-10-17T04:33:48.102Z,70.12
2022-10-17T04:38:50.901Z,69.47
2022-10-17T04:43:55.106Z,69.42
2022-10-17T04:48:58.472Z,69.20
2022-10-17T04:54:01.273Z,69.18
2022-10-17T04:59:04.646Z,68.49
2022-10-17T05:04:07.991Z,68.61
2022-10-17T05:09:11.215Z,68.90
2022-10-17T05:14:13.835Z,68.52
2022-10-17T05:19:17.319Z,68.11
2022-10-17T05:24:23.288Z,68.34
2022-10-17T05:29:26.584Z,68.32
2022-10-17T05:34:38.357Z,67.13
2022-10-17T05:39:41.317Z,67.06
2022-10-17T05:44:45.562Z,66.46
2022-10-17T05:49:52.503Z,65.75
2022-10-17T05:55:06.505Z,65.98
2022-10-17T06:00:10.006Z,65.78
2022-10-17T06:05:21.364Z,65.93
2022-10-17T06:10:24.240Z,66.24
2022-10-17T06:15:26.944Z,65.41
2022-10-17T06:20:45.253Z,65.93
2022-10-17T06:25:51.498Z,65.42
2022-10-17T06:30:54.289Z,65.98
2022-10-17T06:35:57.766Z,65.79
2022-10-17T06:41:09.122Z,64.80
2022-10-17T06:46:12.596Z,63.84
2022-10-17T06:51:27.668Z,63.43
2022-10-17T06:56:32.676Z,63.00
2022-10-17T07:01:55.917Z,62.40
2022-10-17T07:07:03.203Z,62.83
2022-10-17T07:12:08.643Z,63.13
2022-10-17T07:17:13.457Z,62.87
2022-10-17T07:22:17.705Z,64.03
2022-10-17T07:27:23.335Z,64.54
2022-10-17T07:32:26.861Z,63.71
2022-10-17T07:37:30.001Z,64.41
2022-10-17T07:42:42.399Z,64.43
2022-10-17T07:47:46.341Z,64.50
2022-10-17T07:52:51.491Z,65.48
2022-10-17T07:57:54.113Z,66.72
2022-10-17T08:02:56.745Z,68.29
2022-10-17T08:08:00.062Z,70.51
2022-10-17T08:13:03.265Z,71.61
2022-10-17T08:18:05.891Z,72.52
2022-10-17T08:23:08.831Z,72.65
2022-10-17T08:28:11.376Z,71.07
2022-10-17T08:33:13.955Z,70.94
2022-10-17T08:38:20.018Z,70.23
2022-10-17T08:44:03.055Z,70.25
2022-10-17T08:49:20.922Z,71.05
2022-10-17T08:54:39.052Z,73.14
2022-10-17T08:59:43.836Z,75.61
2022-10-17T09:05:08.134Z,76.13
2022-10-17T09:10:27.560Z,77.40
2022-10-17T09:15:49.876Z,79.24
2022-10-17T09:20:58.419Z,85.71
2022-10-17T09:26:01.789Z,83.41
2022-10-17T09:31:22.688Z,82.66
2022-10-17T09:36:34.785Z,82.47
2022-10-17T09:41:45.357Z,85.48
2022-10-17T09:47:04.252Z,84.29
2022-10-17T09:52:19.963Z,83.53
2022-10-17T09:57:22.755Z,84.81
2022-10-17T10:02:27.392Z,84.40
2022-10-17T10:07:35.720Z,83.18
2022-10-17T10:12:39.633Z,84.03
2022-10-17T10:17:42.827Z,84.21
2022-10-17T10:22:46.283Z,84.72
2022-10-17T10:27:48.990Z,83.50
2022-10-17T10:32:52.061Z,83.84
2022-10-17T10:37:57.729Z,85.15
2022-10-17T10:43:05.345Z,85.53
2022-10-17T10:48:30.910Z,86.18
2022-10-17T10:53:57.072Z,86.14
2022-10-17T10:59:19.384Z,85.25
2022-10-17T11:04:40.341Z,85.43
2022-10-17T11:10:00.350Z,85.28
2022-10-17T11:15:32.839Z,85.23
2022-10-17T11:20:53.605Z,85.34
2022-10-17T11:26:02.842Z,86.58
2022-10-17T11:31:13.507Z,85.97
2022-10-17T11:36:19.903Z,87.00
2022-10-17T11:41:55.443Z,87.21
2022-10-17T11:47:03.839Z,87.27
2022-10-17T11:57:56.838Z,86.96
2022-10-17T12:03:11.010Z,88.42
2022-10-17T12:08:50.541Z,89.83
2022-10-17T12:13:55.247Z,90.28
2022-10-17T12:19:00.614Z,90.25
2022-10-17T12:24:03.264Z,90.32
2022-10-17T12:29:32.574Z,90.88
2022-10-17T12:34:35.270Z,91.31
2022-10-17T12:39:37.869Z,91.90
2022-10-17T12:44:40.527Z,92.76
2022-10-17T12:49:45.636Z,93.53
2022-10-17T12:55:24.713Z,92.27
2022-10-17T13:00:59.527Z,93.11
2022-10-17T13:06:13.777Z,92.49
2022-10-17T13:11:16.466Z,92.82
2022-10-17T13:16:40.278Z,91.84
2022-10-17T13:22:01.084Z,92.02
2022-10-17T13:27:28.765Z,92.00
2022-10-17T13:32:40.814Z,91.72
2022-10-17T13:37:50.253Z,91.73
2022-10-17T13:42:57.896Z,92.50
2022-10-17T13:48:04.523Z,93.32
2022-10-17T13:53:13.231Z,93.34
2022-10-17T13:58:17.575Z,93.51
2022-10-17T14:03:22.291Z,93.02
2022-10-17T14:08:25.272Z,92.39
2022-10-17T14:13:33.829Z,92.15
2022-10-17T14:18:37.657Z,92.49
2022-10-17T14:23:43.594Z,93.65
2022-10-17T14:29:04.384Z,93.43
2022-10-17T14:34:07.096Z,94.30
2022-10-17T14:39:21.031Z,94.22
2022-10-17T14:44:29.076Z,94.26
2022-10-17T14:49:33.333Z,94.37
2022-10-17T14:54:37.605Z,94.81
2022-10-17T14:59:53.801Z,94.93
2022-10-17T15:04:57.143Z,95.15
2022-10-17T15:10:00.057Z,95.85
2022-10-17T15:15:02.740Z,95.69
2022-10-17T15:20:14.327Z,96.33
2022-10-17T15:25:16.944Z,96.24
2022-10-17T15:30:32.468Z,97.30
2022-10-17T15:35:37.102Z,97.19
2022-10-17T15:40:41.650Z,98.00
2022-10-17T15:45:44.248Z,98.12
2022-10-17T15:50:46.920Z,97.86
2022-10-17T15:55:51.065Z,97.98
2022-10-17T16:00:53.915Z,98.35
2022-10-17T16:05:57.146Z,98.46
2022-10-17T16:10:59.728Z,98.48
2022-10-17T16:16:02.273Z,97.22
2022-10-17T16:21:05.045Z,97.44
2022-10-17T16:26:07.817Z,97.26
2022-10-17T16:31:31.335Z,96.84
2022-10-17T16:36:34.477Z,97.19
2022-10-17T16:41:39.421Z,97.07
2022-10-17T16:46:42.062Z,97.46
2022-10-17T16:51:44.754Z,97.20
2022-10-17T16:56:47.478Z,96.99
2022-10-17T17:01:50.541Z,96.34
2022-10-17T17:06:53.205Z,96.21
2022-10-17T17:11:55.767Z,96.52
2022-10-17T17:16:58.375Z,96.08
2022-10-17T17:22:01.057Z,95.79
2022-10-17T17:27:03.641Z,95.83
2022-10-17T17:32:06.331Z,95.55
2022-10-17T17:37:08.932Z,95.54
2022-10-17T17:42:14.960Z,96.09
2022-10-17T17:47:20.738Z,96.17
2022-10-17T17:52:23.307Z,96.92
2022-10-17T17:57:25.945Z,96.38
2022-10-17T18:02:28.780Z,96.72
2022-10-17T18:07:31.640Z,96.66
2022-10-17T18:12:37.361Z,96.64
2022-10-17T18:17:40.191Z,96.28
2022-10-17T18:22:42.848Z,95.87
2022-10-17T18:27:48.067Z,96.85
2022-10-17T18:32:51.101Z,96.24
2022-10-17T18:37:56.565Z,96.54
2022-10-17T18:42:59.227Z,96.25
2022-10-17T18:48:01.919Z,95.83
2022-10-17T18:53:05.130Z,96.14
2022-10-17T18:58:07.730Z,96.25
2022-10-17T19:03:10.580Z,96.43
2022-10-17T19:08:15.104Z,96.71
2022-10-17T19:13:21.479Z,96.58
2022-10-17T19:18:24.461Z,97.17
2022-10-17T19:23:27.051Z,97.36
2022-10-17T19:28:29.806Z,98.64
2022-10-17T19:33:32.943Z,99.77
2022-10-17T19:38:36.557Z,100.00
2022-10-17T19:43:40.913Z,100.00
2022-10-17T19:48:44.512Z,100.00
2022-10-17T19:53:47.669Z,100.00
2022-10-17T19:58:51.185Z,100.00
2022-10-17T20:03:54.527Z,100.00
2022-10-17T20:08:57.304Z,100.00
2022-10-17T20:14:01.900Z,100.00
2022-10-17T20:19:08.776Z,100.00
2022-10-17T20:24:14.847Z,100.00
2022-10-17T20:29:20.188Z,100.00
2022-10-17T20:34:22.996Z,100.00
2022-10-17T20:39:25.676Z,100.00
2022-10-17T20:44:28.259Z,100.00
2022-10-17T20:49:31.896Z,100.00
2022-10-17T20:54:34.539Z,100.00
2022-10-17T20:59:37.736Z,100.00
2022-10-17T21:04:46.327Z,100.00
2022-10-17T21:09:49.632Z,100.00
2022-10-17T21:14:52.193Z,100.00
2022-10-17T21:19:54.830Z,100.00
2022-10-17T21:24:57.446Z,100.00
2022-10-17T21:30:00.057Z,100.00
2022-10-17T21:35:02.718Z,100.00
2022-10-17T21:40:06.174Z,100.00
2022-10-17T21:45:15.358Z,100.00
2022-10-17T21:50:22.705Z,100.00
2022-10-17T21:55:25.302Z,100.00
2022-10-17T22:00:27.907Z,100.00
2022-10-17T22:05:31.543Z,100.00
2022-10-17T22:10:37.184Z,100.00
2022-10-17T22:15:39.783Z,100.00
2022-10-17T22:20:42.323Z,100.00
2022-10-17T22:25:53.588Z,99.54
2022-10-17T22:30:56.210Z,100.00
2022-10-17T22:35:59.205Z,100.00
2022-10-17T22:41:02.300Z,100.00
2022-10-17T22:46:06.953Z,100.00
2022-10-17T22:51:10.009Z,99.81
2022-10-17T22:56:16.982Z,99.02
2022-10-17T23:01:22.299Z,99.70
2022-10-17T23:06:24.974Z,99.03
2022-10-17T23:11:27.600Z,99.14
2022-10-17T23:16:30.311Z,99.15
2022-10-17T23:21:32.858Z,98.96
2022-10-17T23:26:35.413Z,99.11
2022-10-17T23:31:37.996Z,99.15
2022-10-17T23:36:40.571Z,99.14
2022-10-17T23:41:43.155Z,99.01
2022-10-17T23:46:45.791Z,98.18
2022-10-17T23:51:48.404Z,98.96
2022-10-17T23:56:50.965Z,98.91
